24°C Temp
22°C Dewpoint
89% Humidity
Temperature
8 KM/H
5 MPH
4 KTS
170°
Due South

Wind Speed
Mostly Scattered
Clouds
Pressure 1019.92 (hPa) - 30.12 (in)
Visibility 4.3 (mi) - 7.0 (km)

Current Conditions
LIMP
Location 40(km)
Metar :LIMP 232050Z 17004KT 7000 SCT040 24/22 Q1020
Fri 23rd August 21:50 pm

Airport
  Metar Aviation API Data Provided by https://www.checkwx.com/ PHP scripts by weather34.com ©2019